Sanibel, FL

2:03 PM EST on November 27, 2014 (GMT -0500)
Rabbit Road | Change Station
CLOSE
Current Station
Personal Weather Station
Location: Sanibel, FL
Elevation: 7 ft
Nearby Weather Stations

Elev 7 ft 26.44 °N, 82.11 °W | Updated 15 seconds ago

Clear
Clear
70.0 °F
Feels Like 70.0 °F
N
4.9
Wind Variable Wind from NNW
Gusts 7.4 mph

Today
High -- | Low -- °F
--% Chance of Precip.
Yesterday
High -- | Low -- °F
Precip. -- in
6:56 AM 5:35 PM
Waxing Crescent, 32% visible
Pressure 30.18 in
Visibility 10.0 miles
Clouds Clear
Dew Point 56 °F
Humidity 60%
Rainfall 0.05 in
Snow Depth Not available.
UV 5 out of 12
Pollen 4.10 out of 12
Air Quality Not available.
Flu Activity Not available.
METAR KFMY 271853Z 34010G16KT 10SM CLR 23/11 A3017 RMK AO2 SLP219 T02280111

More Conditions Fewer Conditions

Pressure 30.18 in
Visibility 10.0 miles
Clouds Clear
Dew Point 56 °F
Humidity 60%
Rainfall 0.05 in
Snow Depth Not available.
UV 5 out of 12
Pollen 4.10 out of 12
Air Quality Not available.
Flu Activity Not available.
METAR KFMY 271853Z 34010G16KT 10SM CLR 23/11 A3017 RMK AO2 SLP219 T02280111

More Conditions Fewer Conditions

10-Day Weather Forecast

Almanac

Astronomy

Nov. 27, 2014 Rise Set
Actual Time
Civil Twilight
Nautical Twilight
Astronomical Twilight
Moon
Length of Visible Light
Length of Day
Tomorrow will be .
, % of the Moon is Illuminated

Today's Extremes

State Highs State Lows

Community

WunderPhotos

Upload Photos

1,774,088 photos uploaded!

WunderBlogs® & News

Nearby

Air Quality

  Air Quality AQ Index Pollutant
Not available.

Snow Depth

Station Depth Elevation

Earthquake Activity

City Distance Mag. Time & Date
Minimum magnitude displayed is 2.5.

Coastal Water Temperatures

Place Temperature

Nearby Weather Stations